Time;durP1;ratioP1;P1;durP2;ratioP2;P2;SDS_P1;SDS_P2;PMS_P1;PMS_P2;Temp;Humidity;BMP_temperature;BMP_pressure;BME280_temperature;BME280_humidity;BME280_pressure;Samples;Min_cycle;Max_cycle;Signal;HPM_P1;HPM_P2
2023/08/18 00:01:19;;;;;;;6.47;5.68;;;;;;;;;;4995068;28;20053;-78
2023/08/18 00:03:45;;;;;;;10.05;6.57;;;;;;;;;;4995538;28;20068;-78
2023/08/18 00:06:11;;;;;;;8.27;5.55;;;;;;;;;;4995621;28;20080;-77
2023/08/18 00:08:36;;;;;;;7.88;5.97;;;;;;;;;;5012927;28;20991;-78
2023/08/18 00:11:02;;;;;;;8.73;5.97;;;;;;;;;;4995318;28;20026;-78
2023/08/18 00:13:28;;;;;;;7.80;5.93;;;;;;;;;;5011531;28;20375;-79
2023/08/18 00:15:53;;;;;;;7.20;5.30;;;;;;;;;;5013165;28;20058;-78
2023/08/18 00:18:19;;;;;;;9.57;6.25;;;;;;;;;;4995286;28;20470;-78
2023/08/18 00:20:44;;;;;;;6.90;6.20;;;;;;;;;;4995535;28;20033;-79
2023/08/18 00:23:10;;;;;;;9.25;6.90;;;;;;;;;;5011757;28;20029;-78
2023/08/18 00:25:35;;;;;;;7.60;6.57;;;;;;;;;;5012739;28;20033;-78
2023/08/18 00:28:01;;;;;;;8.68;6.22;;;;;;;;;;5012767;28;20028;-78
2023/08/18 00:30:26;;;;;;;9.13;6.90;;;;;;;;;;4995242;28;20385;-78
2023/08/18 00:32:52;;;;;;;9.00;6.72;;;;;;;;;;4995043;28;20114;-78
2023/08/18 00:35:17;;;;;;;7.78;6.40;;;;;;;;;;5011157;28;20022;-78
2023/08/18 00:37:45;;;;;;;12.63;8.10;;;;;;;;;;4994291;28;20061;-78
2023/08/18 00:40:11;;;;;;;12.77;7.38;;;;;;;;;;4994994;28;20611;-77
2023/08/18 00:42:37;;;;;;;10.48;7.95;;;;;;;;;;4995127;28;20121;-79
2023/08/18 00:45:03;;;;;;;10.13;7.38;;;;;;;;;;4995736;28;20105;-79
2023/08/18 00:47:30;;;;;;;16.85;7.38;;;;;;;;;;5013657;28;20538;-77
2023/08/18 00:49:57;;;;;;;10.45;7.78;;;;;;;;;;5011401;28;20033;-78
2023/08/18 00:52:24;;;;;;;9.60;7.38;;;;;;;;;;5011861;28;20033;-77
2023/08/18 00:54:51;;;;;;;11.43;7.30;;;;;;;;;;4994529;28;20025;-78
2023/08/18 00:57:19;;;;;;;10.35;6.90;;;;;;;;;;5011714;28;20014;-77
2023/08/18 00:59:45;;;;;;;8.80;7.13;;;;;;;;;;5011857;28;20120;-79
2023/08/18 01:02:13;;;;;;;7.82;7.00;;;;;;;;;;4994349;28;20026;-78
2023/08/18 01:04:38;;;;;;;9.35;6.85;;;;;;;;;;4994390;28;20026;-79
2023/08/18 01:07:04;;;;;;;11.65;6.70;;;;;;;;;;5012156;28;20041;-81
2023/08/18 01:09:31;;;;;;;8.90;7.10;;;;;;;;;;5010725;28;20025;-79
2023/08/18 01:12:18;;;;;;;8.10;7.25;;;;;;;;;;4994502;28;20026;-78
2023/08/18 01:14:55;;;;;;;9.02;6.88;;;;;;;;;;4993730;28;20064;-78
2023/08/18 01:18:04;;;;;;;11.07;7.90;;;;;;;;;;5011910;28;20382;-76
2023/08/18 01:20:31;;;;;;;11.05;7.80;;;;;;;;;;4989416;28;20026;-78
2023/08/18 01:22:57;;;;;;;10.27;6.93;;;;;;;;;;4990970;28;20040;-78
2023/08/18 01:25:24;;;;;;;8.52;7.28;;;;;;;;;;4993907;28;20091;-78
2023/08/18 01:27:50;;;;;;;10.18;7.00;;;;;;;;;;4994151;28;20056;-78
2023/08/18 01:30:16;;;;;;;11.40;7.65;;;;;;;;;;4993935;28;20033;-78
2023/08/18 01:32:49;;;;;;;10.98;8.07;;;;;;;;;;4993927;28;20040;-76
2023/08/18 01:35:16;;;;;;;11.35;6.82;;;;;;;;;;5011931;28;20022;-78
2023/08/18 01:37:42;;;;;;;10.20;7.63;;;;;;;;;;4994101;28;20030;-78
2023/08/18 01:40:11;;;;;;;9.60;8.05;;;;;;;;;;5016415;28;20018;-78
2023/08/18 01:42:37;;;;;;;11.05;7.32;;;;;;;;;;5015681;28;20033;-78
2023/08/18 01:45:03;;;;;;;10.55;7.15;;;;;;;;;;4997794;28;20041;-77
2023/08/18 01:47:29;;;;;;;11.32;8.27;;;;;;;;;;5015642;28;20022;-77
2023/08/18 01:49:55;;;;;;;10.52;7.75;;;;;;;;;;5014564;28;20386;-77
2023/08/18 01:52:21;;;;;;;13.27;7.63;;;;;;;;;;5015176;28;20529;-78
2023/08/18 01:54:49;;;;;;;11.52;8.00;;;;;;;;;;5000708;28;20057;-79
2023/08/18 01:57:15;;;;;;;15.82;8.40;;;;;;;;;;5001698;28;20037;-79
2023/08/18 01:59:40;;;;;;;12.55;8.88;;;;;;;;;;5021420;28;20022;-78
2023/08/18 02:02:06;;;;;;;14.52;9.32;;;;;;;;;;5003052;28;20057;-76
2023/08/18 02:04:31;;;;;;;12.20;8.82;;;;;;;;;;5019599;28;20033;-77
2023/08/18 02:06:57;;;;;;;10.32;8.07;;;;;;;;;;5006337;28;20029;-78
2023/08/18 02:09:22;;;;;;;11.35;8.65;;;;;;;;;;5024671;28;20129;-78
2023/08/18 02:11:48;;;;;;;11.48;8.38;;;;;;;;;;5013017;28;20141;-78
2023/08/18 02:14:13;;;;;;;15.82;9.55;;;;;;;;;;4994433;28;20092;-78
2023/08/18 02:16:41;;;;;;;14.32;9.35;;;;;;;;;;4995370;28;20470;-78
2023/08/18 02:19:06;;;;;;;11.15;8.80;;;;;;;;;;4994579;28;20089;-78
2023/08/18 02:21:32;;;;;;;12.48;8.82;;;;;;;;;;5012036;28;20110;-77
2023/08/18 02:23:58;;;;;;;10.95;7.93;;;;;;;;;;4994808;28;20036;-77
2023/08/18 02:26:23;;;;;;;13.25;8.57;;;;;;;;;;5012619;28;20029;-77
2023/08/18 02:28:49;;;;;;;12.77;8.63;;;;;;;;;;5012125;28;20025;-77
2023/08/18 02:31:15;;;;;;;9.57;8.10;;;;;;;;;;4994373;28;20090;-78
2023/08/18 02:33:40;;;;;;;9.70;8.60;;;;;;;;;;5011244;28;20056;-79
2023/08/18 02:36:06;;;;;;;14.02;9.35;;;;;;;;;;5010387;28;20038;-78
2023/08/18 02:38:35;;;;;;;12.25;9.35;;;;;;;;;;5011516;28;20427;-78
2023/08/18 02:41:00;;;;;;;14.13;11.07;;;;;;;;;;4993385;28;20113;-78
2023/08/18 02:43:26;;;;;;;14.50;11.20;;;;;;;;;;4993208;28;20049;-76
2023/08/18 02:45:58;;;;;;;17.38;11.70;;;;;;;;;;4993145;28;20721;-78
2023/08/18 02:48:26;;;;;;;15.35;10.88;;;;;;;;;;4994010;28;20021;-79
2023/08/18 02:51:02;;;;;;;14.18;10.52;;;;;;;;;;4994251;28;20018;-79
2023/08/18 02:53:28;;;;;;;15.57;11.00;;;;;;;;;;5012529;28;20030;-79
2023/08/18 02:55:58;;;;;;;18.15;11.18;;;;;;;;;;5012788;28;20588;-79
2023/08/18 02:58:25;;;;;;;17.23;10.65;;;;;;;;;;4994015;28;20037;-78
2023/08/18 03:00:51;;;;;;;14.80;10.52;;;;;;;;;;4992806;28;20025;-78
2023/08/18 03:03:16;;;;;;;13.60;10.57;;;;;;;;;;5011628;28;20045;-77
2023/08/18 03:05:42;;;;;;;12.98;9.25;;;;;;;;;;5010920;28;20029;-78
2023/08/18 03:08:07;;;;;;;13.77;10.50;;;;;;;;;;5009032;28;20089;-78
2023/08/18 03:10:33;;;;;;;17.02;10.75;;;;;;;;;;5010621;28;20054;-77
2023/08/18 03:12:58;;;;;;;13.85;9.48;;;;;;;;;;5012647;28;20038;-78
2023/08/18 03:15:24;;;;;;;15.10;9.95;;;;;;;;;;4992971;28;20454;-78
2023/08/18 03:17:50;;;;;;;13.88;9.95;;;;;;;;;;4981068;28;20030;-78
2023/08/18 03:20:19;;;;;;;14.95;10.30;;;;;;;;;;5014200;28;20022;-77
2023/08/18 03:22:44;;;;;;;17.05;9.45;;;;;;;;;;5025332;28;20484;-77
2023/08/18 03:25:10;;;;;;;13.43;9.30;;;;;;;;;;5031544;28;20025;-78
2023/08/18 03:27:35;;;;;;;13.88;9.55;;;;;;;;;;5004590;28;20060;-78
2023/08/18 03:30:01;;;;;;;16.15;9.45;;;;;;;;;;4996576;28;20041;-77
2023/08/18 03:32:27;;;;;;;13.00;9.75;;;;;;;;;;5015700;28;20034;-78
2023/08/18 03:34:54;;;;;;;15.05;9.07;;;;;;;;;;4998337;28;20026;-77
2023/08/18 03:37:20;;;;;;;12.55;9.55;;;;;;;;;;4999281;28;20107;-78
2023/08/18 03:39:45;;;;;;;14.90;8.80;;;;;;;;;;5016596;28;20490;-77
2023/08/18 03:42:11;;;;;;;13.80;8.88;;;;;;;;;;5017319;28;20022;-78
2023/08/18 03:44:37;;;;;;;17.40;9.02;;;;;;;;;;5000744;28;20112;-78
2023/08/18 03:47:03;;;;;;;15.82;9.90;;;;;;;;;;4997076;28;20108;-78
2023/08/18 03:49:29;;;;;;;12.05;9.20;;;;;;;;;;4996818;28;20034;-79
2023/08/18 03:51:55;;;;;;;11.95;9.55;;;;;;;;;;5013885;28;20030;-78
2023/08/18 03:54:20;;;;;;;12.43;9.18;;;;;;;;;;5013532;28;20029;-77
2023/08/18 03:56:46;;;;;;;14.45;9.73;;;;;;;;;;4995728;28;20026;-78
2023/08/18 03:59:11;;;;;;;20.25;10.70;;;;;;;;;;5013675;28;20101;-78
2023/08/18 04:01:37;;;;;;;15.13;9.93;;;;;;;;;;4996073;28;20026;-78
2023/08/18 04:04:04;;;;;;;26.15;10.57;;;;;;;;;;4995663;28;20026;-77
2023/08/18 04:06:30;;;;;;;12.27;9.50;;;;;;;;;;5013370;28;20037;-78
2023/08/18 04:09:22;;;;;;;15.73;9.65;;;;;;;;;;4995639;28;20021;-78
2023/08/18 04:11:48;;;;;;;17.35;9.73;;;;;;;;;;5009069;28;20489;-78
2023/08/18 04:14:15;;;;;;;16.02;10.43;;;;;;;;;;4995596;28;20033;-78
2023/08/18 04:16:41;;;;;;;14.00;10.55;;;;;;;;;;5011308;28;20038;-78
2023/08/18 04:19:07;;;;;;;11.20;9.18;;;;;;;;;;4995509;28;20546;-78
2023/08/18 04:21:33;;;;;;;13.70;10.52;;;;;;;;;;5012899;28;20056;-77
2023/08/18 04:23:59;;;;;;;15.48;10.65;;;;;;;;;;5011420;28;20029;-78
2023/08/18 04:26:27;;;;;;;15.98;11.07;;;;;;;;;;5012398;28;20022;-78
2023/08/18 04:28:53;;;;;;;12.25;9.55;;;;;;;;;;5010683;28;20044;-78
2023/08/18 04:31:18;;;;;;;12.73;10.13;;;;;;;;;;5012036;28;20026;-78
2023/08/18 04:33:44;;;;;;;13.60;10.52;;;;;;;;;;4994492;28;20076;-77
2023/08/18 04:36:09;;;;;;;14.02;8.80;;;;;;;;;;4994895;28;20030;-78
2023/08/18 04:38:34;;;;;;;12.80;8.80;;;;;;;;;;5012564;28;20052;-78
2023/08/18 04:41:02;;;;;;;16.38;9.52;;;;;;;;;;4994738;28;20026;-78
2023/08/18 04:43:28;;;;;;;18.20;10.75;;;;;;;;;;5012827;28;20030;-77
2023/08/18 04:45:54;;;;;;;13.02;9.40;;;;;;;;;;4995263;28;20022;-78
2023/08/18 04:48:21;;;;;;;11.75;9.93;;;;;;;;;;5013696;28;20024;-78
2023/08/18 04:50:46;;;;;;;13.88;9.95;;;;;;;;;;5013443;28;20574;-79
2023/08/18 04:53:12;;;;;;;15.35;9.75;;;;;;;;;;5013054;28;20033;-77
2023/08/18 04:55:38;;;;;;;16.30;9.07;;;;;;;;;;5011449;28;20040;-78
2023/08/18 04:58:05;;;;;;;16.13;11.73;;;;;;;;;;5014101;28;20037;-78
2023/08/18 05:00:30;;;;;;;15.80;10.13;;;;;;;;;;4995813;28;20029;-77
2023/08/18 05:02:56;;;;;;;12.15;9.77;;;;;;;;;;4992972;28;20034;-78
2023/08/18 05:05:21;;;;;;;18.65;10.27;;;;;;;;;;4996051;28;20450;-76
2023/08/18 05:07:47;;;;;;;14.50;9.95;;;;;;;;;;5013897;28;20054;-73
2023/08/18 05:10:13;;;;;;;17.00;10.90;;;;;;;;;;5004079;28;20045;-74
2023/08/18 05:12:38;;;;;;;123.82;21.25;;;;;;;;;;5011666;28;20090;-76
2023/08/18 05:15:05;;;;;;;23.27;10.30;;;;;;;;;;5011139;28;20409;-76
2023/08/18 05:17:30;;;;;;;36.78;12.65;;;;;;;;;;5011327;28;20063;-77
2023/08/18 05:19:56;;;;;;;18.80;11.32;;;;;;;;;;5010771;28;20022;-77
2023/08/18 05:22:22;;;;;;;17.08;10.73;;;;;;;;;;5012496;28;20066;-77
2023/08/18 05:24:48;;;;;;;15.77;9.75;;;;;;;;;;5011033;28;20050;-78
2023/08/18 05:27:16;;;;;;;15.80;11.57;;;;;;;;;;5013972;28;20173;-78
2023/08/18 05:29:41;;;;;;;17.25;11.98;;;;;;;;;;5012134;28;20032;-78
2023/08/18 05:32:07;;;;;;;17.55;10.73;;;;;;;;;;5014120;28;20437;-80
2023/08/18 05:34:32;;;;;;;19.58;11.07;;;;;;;;;;4995827;28;20033;-79
2023/08/18 05:36:58;;;;;;;12.98;9.82;;;;;;;;;;5012960;28;20018;-77
2023/08/18 05:39:23;;;;;;;16.40;11.95;;;;;;;;;;4995122;28;20050;-79
2023/08/18 05:41:49;;;;;;;15.57;11.00;;;;;;;;;;4996118;28;20112;-74
2023/08/18 05:44:15;;;;;;;13.77;10.82;;;;;;;;;;5010437;28;20406;-74
2023/08/18 05:46:40;;;;;;;15.73;9.73;;;;;;;;;;4995994;28;20026;-76
2023/08/18 05:49:08;;;;;;;26.30;11.73;;;;;;;;;;5011861;28;20034;-74
2023/08/18 05:51:33;;;;;;;21.30;11.32;;;;;;;;;;4997653;28;20133;-71
2023/08/18 05:54:00;;;;;;;30.48;13.13;;;;;;;;;;5016539;28;20112;-74
2023/08/18 05:56:25;;;;;;;13.52;10.93;;;;;;;;;;4993902;28;20095;-75
2023/08/18 05:58:51;;;;;;;29.70;13.93;;;;;;;;;;5019850;28;20025;-74
2023/08/18 06:01:17;;;;;;;47.60;14.93;;;;;;;;;;4998916;28;20026;-75
2023/08/18 06:03:43;;;;;;;14.75;11.23;;;;;;;;;;5009981;28;20022;-75
2023/08/18 06:06:08;;;;;;;15.57;10.35;;;;;;;;;;5009671;28;20144;-75
2023/08/18 06:08:34;;;;;;;16.90;11.07;;;;;;;;;;4985288;28;20076;-75
2023/08/18 06:11:00;;;;;;;14.98;11.25;;;;;;;;;;5011490;28;20076;-70
2023/08/18 06:13:25;;;;;;;17.73;12.65;;;;;;;;;;4999689;28;20471;-75
2023/08/18 06:15:54;;;;;;;15.43;10.90;;;;;;;;;;4991913;28;20396;-77
2023/08/18 06:18:20;;;;;;;15.75;10.80;;;;;;;;;;5013839;28;20089;-75
2023/08/18 06:20:46;;;;;;;18.35;11.57;;;;;;;;;;5012339;28;20026;-78
2023/08/18 06:23:11;;;;;;;23.10;12.48;;;;;;;;;;5019656;28;20117;-76
2023/08/18 06:25:37;;;;;;;17.25;12.43;;;;;;;;;;5015399;28;20030;-78
2023/08/18 06:28:03;;;;;;;14.65;11.50;;;;;;;;;;5001038;28;20021;-74
2023/08/18 06:30:52;;;;;;;20.60;13.95;;;;;;;;;;4988264;28;20030;-74
2023/08/18 06:33:18;;;;;;;16.52;11.57;;;;;;;;;;4996538;28;20037;-76
2023/08/18 06:35:43;;;;;;;27.20;12.10;;;;;;;;;;4970750;28;20037;-77
2023/08/18 06:38:21;;;;;;;17.98;11.68;;;;;;;;;;4988959;28;20057;-75
2023/08/18 06:40:47;;;;;;;17.38;13.30;;;;;;;;;;4991213;28;20025;-73
2023/08/18 06:43:23;;;;;;;24.58;12.30;;;;;;;;;;5005579;28;20498;-74
2023/08/18 06:45:49;;;;;;;19.70;11.57;;;;;;;;;;4984976;28;20035;-74
2023/08/18 06:48:15;;;;;;;13.48;11.30;;;;;;;;;;5003967;28;20029;-74
2023/08/18 06:50:42;;;;;;;15.80;11.40;;;;;;;;;;5000211;28;20056;-75
2023/08/18 06:53:10;;;;;;;14.45;10.85;;;;;;;;;;5008743;28;20041;-74
2023/08/18 06:55:35;;;;;;;19.30;11.45;;;;;;;;;;4999661;28;20037;-76
2023/08/18 06:58:03;;;;;;;24.15;11.75;;;;;;;;;;5008939;28;20092;-75
2023/08/18 07:00:29;;;;;;;18.10;11.35;;;;;;;;;;4993143;28;20123;-77
2023/08/18 07:02:57;;;;;;;13.90;10.65;;;;;;;;;;4994586;28;20042;-76
2023/08/18 07:05:25;;;;;;;16.33;10.43;;;;;;;;;;4991240;28;20201;-76
2023/08/18 07:07:53;;;;;;;19.48;11.70;;;;;;;;;;4989159;28;20026;-75
2023/08/18 07:10:20;;;;;;;12.88;11.35;;;;;;;;;;5009335;28;20060;-77
2023/08/18 07:12:47;;;;;;;18.77;12.20;;;;;;;;;;5003577;28;20048;-74
2023/08/18 07:15:13;;;;;;;15.75;11.27;;;;;;;;;;5006831;28;20453;-74
2023/08/18 07:17:38;;;;;;;20.20;12.52;;;;;;;;;;4987320;28;20152;-75
2023/08/18 07:20:06;;;;;;;19.75;11.43;;;;;;;;;;5008134;28;20513;-75
2023/08/18 07:22:32;;;;;;;26.90;11.95;;;;;;;;;;5008752;28;20034;-75
2023/08/18 07:25:00;;;;;;;13.50;11.07;;;;;;;;;;4987446;28;20037;-74
2023/08/18 07:27:31;;;;;;;15.25;10.98;;;;;;;;;;5005231;28;20140;-76
2023/08/18 07:29:57;;;;;;;35.67;13.68;;;;;;;;;;4986285;28;20065;-76
2023/08/18 07:32:22;;;;;;;143.60;22.33;;;;;;;;;;4985247;28;20552;-77
2023/08/18 07:34:48;;;;;;;17.80;11.50;;;;;;;;;;4999207;28;20457;-76
2023/08/18 07:37:13;;;;;;;14.55;11.82;;;;;;;;;;5004454;28;20269;-75
2023/08/18 07:39:39;;;;;;;24.45;11.05;;;;;;;;;;4990592;28;20506;-77
2023/08/18 07:42:05;;;;;;;22.70;10.88;;;;;;;;;;4998934;28;20626;-76
2023/08/18 07:44:31;;;;;;;24.48;11.23;;;;;;;;;;4982743;28;20029;-76
2023/08/18 07:46:56;;;;;;;17.02;9.40;;;;;;;;;;5005008;28;20373;-76
2023/08/18 07:49:23;;;;;;;11.57;9.93;;;;;;;;;;5004088;28;20030;-76
2023/08/18 07:51:48;;;;;;;16.23;11.18;;;;;;;;;;4993458;28;20041;-75
2023/08/18 07:54:15;;;;;;;16.35;10.98;;;;;;;;;;5013608;28;20081;-75
2023/08/18 07:56:40;;;;;;;16.90;10.60;;;;;;;;;;5012393;28;20144;-75
2023/08/18 07:59:06;;;;;;;13.88;9.38;;;;;;;;;;4988132;28;20128;-75
2023/08/18 08:01:31;;;;;;;14.35;9.68;;;;;;;;;;5006373;28;20026;-77
2023/08/18 08:03:59;;;;;;;20.33;11.48;;;;;;;;;;4989998;28;20474;-77
2023/08/18 08:06:24;;;;;;;15.52;10.95;;;;;;;;;;5009979;28;20030;-74
2023/08/18 08:08:50;;;;;;;13.07;10.10;;;;;;;;;;5010530;28;20299;-77
2023/08/18 08:11:16;;;;;;;13.50;10.10;;;;;;;;;;5006368;28;20041;-76
2023/08/18 08:13:41;;;;;;;13.65;9.75;;;;;;;;;;4993619;28;20036;-78
2023/08/18 08:16:08;;;;;;;13.77;10.15;;;;;;;;;;4989474;28;20490;-74
2023/08/18 08:18:34;;;;;;;16.15;10.02;;;;;;;;;;5006492;28;20034;-78
2023/08/18 08:21:02;;;;;;;15.35;11.02;;;;;;;;;;5010463;28;20034;-75
2023/08/18 08:23:29;;;;;;;10.30;9.20;;;;;;;;;;5011961;28;20025;-75
2023/08/18 08:25:55;;;;;;;14.15;9.07;;;;;;;;;;4980803;28;20033;-74
2023/08/18 08:28:25;;;;;;;12.82;10.13;;;;;;;;;;5003906;28;20493;-76
2023/08/18 08:30:51;;;;;;;15.68;9.63;;;;;;;;;;4989014;28;20038;-77
2023/08/18 08:33:17;;;;;;;11.65;9.15;;;;;;;;;;4992672;28;20485;-79
2023/08/18 08:35:43;;;;;;;15.63;10.52;;;;;;;;;;5002714;28;20087;-78
2023/08/18 08:38:09;;;;;;;13.52;9.27;;;;;;;;;;4985076;28;20057;-77
2023/08/18 08:40:35;;;;;;;19.05;9.65;;;;;;;;;;5005535;28;20037;-77
2023/08/18 08:43:02;;;;;;;18.38;9.95;;;;;;;;;;4989430;28;20418;-73
2023/08/18 08:45:27;;;;;;;14.98;9.25;;;;;;;;;;5002598;28;20030;-75
2023/08/18 08:47:56;;;;;;;14.60;10.43;;;;;;;;;;5003963;28;20045;-77
2023/08/18 08:50:27;;;;;;;15.75;10.43;;;;;;;;;;5005215;28;20037;-78
2023/08/18 08:53:00;;;;;;;10.48;9.20;;;;;;;;;;4991145;28;20120;-78
2023/08/18 08:55:31;;;;;;;15.23;11.48;;;;;;;;;;4989782;28;20038;-78
2023/08/18 08:57:58;;;;;;;;;;;;;;;;;;5013236;28;20026;-77
2023/08/18 09:00:24;;;;;;;14.88;10.00;;;;;;;;;;5012685;28;19943;-79
2023/08/18 09:02:49;;;;;;;13.20;10.07;;;;;;;;;;4995739;28;20030;-78
2023/08/18 09:05:17;;;;;;;14.20;10.02;;;;;;;;;;5010167;28;20373;-75
2023/08/18 09:08:17;;;;;;;19.42;10.85;;;;;;;;;;4993111;28;20112;-75
2023/08/18 09:10:43;;;;;;;14.80;10.20;;;;;;;;;;5006063;28;20431;-77
2023/08/18 09:13:09;;;;;;;16.83;10.23;;;;;;;;;;5007166;28;20030;-76
2023/08/18 09:15:34;;;;;;;15.30;10.10;;;;;;;;;;4986301;28;20332;-74
2023/08/18 09:18:03;;;;;;;15.30;10.27;;;;;;;;;;4984264;28;20039;-75
2023/08/18 09:20:28;;;;;;;14.20;10.88;;;;;;;;;;4988115;28;20938;-76
2023/08/18 09:22:55;;;;;;;13.98;9.82;;;;;;;;;;4982999;28;20034;-77
2023/08/18 09:25:21;;;;;;;19.08;10.70;;;;;;;;;;4989125;28;20113;-76
2023/08/18 09:27:46;;;;;;;14.30;10.23;;;;;;;;;;4982328;28;20022;-75
2023/08/18 09:30:14;;;;;;;13.55;10.60;;;;;;;;;;4985324;28;20053;-78
2023/08/18 09:32:41;;;;;;;12.48;10.48;;;;;;;;;;4992803;28;20026;-78
2023/08/18 09:35:11;;;;;;;14.93;10.13;;;;;;;;;;4984270;28;20038;-77
2023/08/18 09:37:42;;;;;;;16.92;11.27;;;;;;;;;;4998888;28;20042;-76
2023/08/18 09:40:08;;;;;;;14.35;9.57;;;;;;;;;;4985969;28;20104;-78
2023/08/18 09:42:34;;;;;;;15.52;10.73;;;;;;;;;;4991274;28;20471;-77
2023/08/18 09:44:59;;;;;;;12.25;9.63;;;;;;;;;;4987636;28;20045;-76
2023/08/18 09:47:29;;;;;;;15.00;10.43;;;;;;;;;;4990434;28;20441;-74
2023/08/18 09:50:02;;;;;;;17.42;8.98;;;;;;;;;;4988524;28;20030;-77
2023/08/18 09:52:38;;;;;;;14.02;9.48;;;;;;;;;;5007024;28;20596;-77
2023/08/18 09:55:15;;;;;;;14.65;10.32;;;;;;;;;;5002898;28;20118;-75
2023/08/18 09:58:06;;;;;;;15.73;9.02;;;;;;;;;;4985325;28;20030;-77
2023/08/18 10:00:33;;;;;;;12.95;8.63;;;;;;;;;;4987659;28;20084;-78
2023/08/18 10:03:04;;;;;;;10.85;9.15;;;;;;;;;;4985378;28;20036;-77
2023/08/18 10:05:30;;;;;;;17.55;9.13;;;;;;;;;;4983961;28;20026;-77
2023/08/18 10:07:57;;;;;;;10.50;7.80;;;;;;;;;;4998782;28;20141;-77
2023/08/18 10:10:24;;;;;;;12.45;8.07;;;;;;;;;;4983764;28;20029;-77
2023/08/18 10:12:51;;;;;;;13.07;7.88;;;;;;;;;;4981457;28;20118;-76
2023/08/18 10:15:17;;;;;;;9.40;7.20;;;;;;;;;;4989669;28;20057;-74
2023/08/18 10:17:49;;;;;;;12.35;7.95;;;;;;;;;;5000139;28;20545;-77
2023/08/18 10:20:16;;;;;;;12.25;8.18;;;;;;;;;;4986929;28;20390;-80
2023/08/18 10:22:44;;;;;;;9.80;7.68;;;;;;;;;;5002752;28;20125;-77
2023/08/18 10:25:23;;;;;;;12.52;7.90;;;;;;;;;;4985406;28;20037;-78
2023/08/18 10:27:52;;;;;;;20.48;8.75;;;;;;;;;;4985567;28;20041;-78
2023/08/18 10:30:17;;;;;;;43.22;11.77;;;;;;;;;;4989180;28;20076;-75
2023/08/18 10:32:44;;;;;;;16.27;8.70;;;;;;;;;;4993336;28;20088;-77
2023/08/18 10:35:24;;;;;;;16.27;7.75;;;;;;;;;;5005928;28;20037;-78
2023/08/18 10:37:55;;;;;;;13.93;8.48;;;;;;;;;;5005931;28;20037;-79
2023/08/18 10:40:25;;;;;;;11.65;8.13;;;;;;;;;;5006105;28;20721;-76
2023/08/18 10:43:03;;;;;;;27.83;10.47;;;;;;;;;;4987549;28;20034;-75
2023/08/18 10:45:29;;;;;;;16.25;10.00;;;;;;;;;;4992390;28;20356;-75
2023/08/18 10:48:11;;;;;;;18.70;9.77;;;;;;;;;;5007923;28;20084;-76
2023/08/18 10:50:42;;;;;;;16.83;9.02;;;;;;;;;;5006728;28;20041;-77
2023/08/18 10:53:15;;;;;;;21.48;8.48;;;;;;;;;;4989276;28;20041;-78
2023/08/18 10:55:43;;;;;;;10.55;9.45;;;;;;;;;;5006671;28;20057;-76
2023/08/18 10:58:09;;;;;;;16.48;8.73;;;;;;;;;;5004001;28;20042;-77
2023/08/18 11:00:36;;;;;;;15.70;8.80;;;;;;;;;;5005289;28;20042;-77
2023/08/18 11:03:05;;;;;;;11.57;8.25;;;;;;;;;;5004650;28;20105;-76
2023/08/18 11:05:35;;;;;;;13.82;8.48;;;;;;;;;;4997578;28;20030;-78
2023/08/18 11:08:03;;;;;;;9.18;8.25;;;;;;;;;;4988371;28;20022;-76
2023/08/18 11:10:31;;;;;;;12.13;8.45;;;;;;;;;;4991714;28;20033;-77
2023/08/18 11:12:58;;;;;;;24.02;8.95;;;;;;;;;;5009394;28;20051;-78
2023/08/18 11:15:25;;;;;;;11.02;8.48;;;;;;;;;;5004465;28;20050;-77
2023/08/18 11:17:55;;;;;;;10.50;8.02;;;;;;;;;;4990222;28;20042;-76
2023/08/18 11:20:27;;;;;;;11.57;8.70;;;;;;;;;;4983675;28;20105;-77
2023/08/18 11:22:59;;;;;;;12.18;7.72;;;;;;;;;;5006559;28;20079;-77
2023/08/18 11:25:37;;;;;;;15.05;7.35;;;;;;;;;;4972702;28;20245;-75
2023/08/18 11:28:15;;;;;;;13.07;8.32;;;;;;;;;;4993622;28;20113;-75
2023/08/18 11:31:05;;;;;;;26.88;8.77;;;;;;;;;;5006796;28;20145;-77
2023/08/18 11:33:45;;;;;;;9.07;7.00;;;;;;;;;;4988314;28;20037;-75
2023/08/18 11:36:11;;;;;;;9.70;7.38;;;;;;;;;;5007514;28;20044;-76
2023/08/18 11:38:49;;;;;;;11.40;7.55;;;;;;;;;;5008269;28;20033;-77
2023/08/18 11:41:22;;;;;;;15.63;8.38;;;;;;;;;;5013780;28;20041;-76
2023/08/18 11:43:53;;;;;;;12.43;7.95;;;;;;;;;;5012094;28;20022;-77
2023/08/18 11:46:19;;;;;;;;;;;;;;;;;;4997814;28;20041;-77
2023/08/18 11:49:01;;;;;;;9.23;7.50;;;;;;;;;;4996121;28;20477;-77
2023/08/18 11:52:03;;;;;;;14.93;7.65;;;;;;;;;;5008216;28;20052;-78
2023/08/18 11:54:33;;;;;;;9.30;7.05;;;;;;;;;;5009285;28;20168;-75
2023/08/18 11:57:00;;;;;;;14.48;7.47;;;;;;;;;;5019652;28;20030;-77
2023/08/18 11:59:27;;;;;;;10.82;7.85;;;;;;;;;;5020561;28;20053;-77
2023/08/18 12:02:00;;;;;;;11.52;7.47;;;;;;;;;;5017990;28;20104;-75
2023/08/18 12:04:31;;;;;;;15.02;8.18;;;;;;;;;;5010551;28;20030;-77
2023/08/18 12:06:57;;;;;;;11.95;6.97;;;;;;;;;;5020008;28;20529;-76
2023/08/18 12:09:23;;;;;;;8.70;6.78;;;;;;;;;;5000071;28;20049;-77
2023/08/18 12:11:50;;;;;;;9.82;6.82;;;;;;;;;;5019760;28;20041;-76
2023/08/18 12:14:18;;;;;;;13.00;7.05;;;;;;;;;;5016216;28;20053;-77
2023/08/18 12:16:45;;;;;;;8.73;6.55;;;;;;;;;;5010736;28;20103;-77
2023/08/18 12:19:11;;;;;;;18.45;7.65;;;;;;;;;;4994694;28;20149;-77
2023/08/18 12:21:38;;;;;;;12.35;7.10;;;;;;;;;;5015135;28;20091;-78
2023/08/18 12:24:05;;;;;;;8.38;6.15;;;;;;;;;;5012287;28;20506;-77
2023/08/18 12:26:34;;;;;;;7.38;6.43;;;;;;;;;;4989656;28;20594;-78
2023/08/18 12:29:04;;;;;;;7.18;6.28;;;;;;;;;;5002888;28;20030;-78
2023/08/18 12:31:33;;;;;;;19.25;7.20;;;;;;;;;;4992914;28;20099;-77
2023/08/18 12:34:05;;;;;;;8.95;6.80;;;;;;;;;;4995108;28;20103;-74
2023/08/18 12:36:33;;;;;;;10.05;6.10;;;;;;;;;;5006867;28;20030;-77
2023/08/18 12:39:01;;;;;;;;;;;;;;;;;;4992799;28;20045;-77
2023/08/18 12:41:28;;;;;;;8.18;6.03;;;;;;;;;;4996098;28;19945;-77
2023/08/18 12:43:54;;;;;;;11.60;7.07;;;;;;;;;;4989606;28;20724;-75
2023/08/18 12:46:22;;;;;;;6.72;5.68;;;;;;;;;;4999729;28;20033;-73
2023/08/18 12:48:48;;;;;;;9.90;6.25;;;;;;;;;;5025276;28;20028;-76
2023/08/18 12:51:18;;;;;;;10.07;6.82;;;;;;;;;;4999998;28;20200;-76
2023/08/18 12:53:45;;;;;;;13.43;6.93;;;;;;;;;;5005884;28;20021;-77
2023/08/18 12:56:10;;;;;;;13.23;6.70;;;;;;;;;;4995438;28;20034;-75
2023/08/18 12:58:36;;;;;;;12.50;7.30;;;;;;;;;;4993795;28;20021;-75
2023/08/18 13:01:03;;;;;;;10.18;6.35;;;;;;;;;;5012987;28;20076;-76
2023/08/18 13:03:29;;;;;;;6.80;5.85;;;;;;;;;;4995704;28;20032;-76
2023/08/18 13:05:54;;;;;;;8.80;6.70;;;;;;;;;;4992011;28;20022;-77
2023/08/18 13:08:20;;;;;;;7.13;5.10;;;;;;;;;;4991381;28;20068;-77
2023/08/18 13:10:46;;;;;;;6.15;5.60;;;;;;;;;;5016380;28;20040;-78
2023/08/18 13:13:13;;;;;;;8.55;5.63;;;;;;;;;;4991699;28;20124;-77
2023/08/18 13:15:38;;;;;;;6.63;4.95;;;;;;;;;;5007092;28;20041;-77
2023/08/18 13:18:04;;;;;;;9.75;6.35;;;;;;;;;;4997838;28;20029;-76
2023/08/18 13:20:30;;;;;;;6.40;4.68;;;;;;;;;;5008591;28;20144;-78
2023/08/18 13:22:55;;;;;;;7.57;5.07;;;;;;;;;;4998162;28;20033;-77
2023/08/18 13:25:34;;;;;;;6.20;5.25;;;;;;;;;;5007362;28;20033;-77
2023/08/18 13:28:00;;;;;;;7.18;5.13;;;;;;;;;;4990113;28;20026;-77
2023/08/18 13:30:26;;;;;;;8.23;5.00;;;;;;;;;;5008087;28;20026;-77
2023/08/18 13:32:51;;;;;;;8.82;5.72;;;;;;;;;;5012363;28;20029;-77
2023/08/18 13:35:17;;;;;;;8.98;5.22;;;;;;;;;;4993488;28;20033;-78
2023/08/18 13:37:43;;;;;;;11.45;4.80;;;;;;;;;;5017247;28;20099;-78
2023/08/18 13:40:08;;;;;;;5.22;4.72;;;;;;;;;;4995534;28;20030;-77
2023/08/18 13:42:34;;;;;;;10.07;5.63;;;;;;;;;;4991155;28;20125;-81
2023/08/18 13:45:00;;;;;;;7.22;4.82;;;;;;;;;;5007883;28;20662;-76
2023/08/18 13:47:26;;;;;;;6.70;4.75;;;;;;;;;;5001321;28;20030;-79
2023/08/18 13:49:52;;;;;;;7.75;5.30;;;;;;;;;;4995072;28;20033;-78
2023/08/18 13:52:18;;;;;;;10.52;5.68;;;;;;;;;;5014010;28;20084;-77
2023/08/18 13:54:43;;;;;;;6.25;5.20;;;;;;;;;;5013310;28;20035;-77
2023/08/18 13:57:10;;;;;;;7.13;5.00;;;;;;;;;;5007985;28;20046;-79
2023/08/18 13:59:36;;;;;;;11.45;5.32;;;;;;;;;;5003081;28;20035;-78
2023/08/18 14:02:02;;;;;;;11.50;5.53;;;;;;;;;;5019912;28;20030;-78
2023/08/18 14:04:28;;;;;;;7.65;5.00;;;;;;;;;;5014508;28;20030;-79
2023/08/18 14:06:54;;;;;;;5.93;4.85;;;;;;;;;;4995290;28;20144;-78
2023/08/18 14:09:23;;;;;;;7.07;5.20;;;;;;;;;;5016476;28;20037;-78
2023/08/18 14:11:48;;;;;;;7.18;4.38;;;;;;;;;;5011247;28;20491;-78
2023/08/18 14:14:14;;;;;;;6.38;5.13;;;;;;;;;;5012184;28;20034;-77
2023/08/18 14:16:40;;;;;;;7.15;4.55;;;;;;;;;;5014476;28;20509;-79
2023/08/18 14:19:06;;;;;;;5.05;4.05;;;;;;;;;;5014167;28;20040;-79
2023/08/18 14:21:31;;;;;;;4.75;3.92;;;;;;;;;;5019984;28;20470;-78
2023/08/18 14:23:57;;;;;;;8.57;4.60;;;;;;;;;;5011816;28;20033;-79
2023/08/18 14:26:22;;;;;;;6.00;4.13;;;;;;;;;;4997384;28;20026;-81
2023/08/18 14:28:48;;;;;;;6.70;4.03;;;;;;;;;;5004221;28;20513;-80
2023/08/18 14:31:13;;;;;;;5.60;4.25;;;;;;;;;;4993702;28;20033;-80